Juripiranga, Brazil
Current Conditions -  °F | °C
As of 7:00 AM on Thursday 18 Dec 2014 (Local Time) from SBJP Reporting Station
Scattered Clouds Scattered Clouds  
Wind Chill: 81°   Ceiling: Unl
Heat Index: 84°   Visibility: 6mi
Dew Point: 70°   Wind: 6mph
Humidity: 70%   Direction: 100°E
Pressure: 29.94"   Gusts: NA
Location:  7.37°S, 35.24°W
Report Text: SBJP 181000Z 10005KT 9999 SCT020 SCT100 27/21 Q1014
Loading
Personal Weather Stations






























Interactive Weather Map New forecast layout! Learn more

10-Day Weather Forecast

Advertisements
Track Severe Weather on mobile